sensor_id;sensor_type;location;lat;lon;timestamp;P1;durP1;ratioP1;P2;durP2;ratioP2
31537;SDS011;18147;51.952;6.146;2022-11-20T00:02:18;36.92;;;16.60;;
31537;SDS011;18147;51.952;6.146;2022-11-20T00:04:43;39.75;;;15.82;;
31537;SDS011;18147;51.952;6.146;2022-11-20T00:07:09;35.88;;;15.75;;
31537;SDS011;18147;51.952;6.146;2022-11-20T00:09:35;42.97;;;17.38;;
31537;SDS011;18147;51.952;6.146;2022-11-20T00:12:00;33.55;;;15.95;;
31537;SDS011;18147;51.952;6.146;2022-11-20T00:14:25;38.22;;;16.90;;
31537;SDS011;18147;51.952;6.146;2022-11-20T00:16:51;31.58;;;16.48;;
31537;SDS011;18147;51.952;6.146;2022-11-20T00:19:16;38.70;;;18.27;;
31537;SDS011;18147;51.952;6.146;2022-11-20T00:21:42;34.20;;;16.67;;
31537;SDS011;18147;51.952;6.146;2022-11-20T00:24:08;39.72;;;18.48;;
31537;SDS011;18147;51.952;6.146;2022-11-20T00:26:35;36.75;;;17.08;;
31537;SDS011;18147;51.952;6.146;2022-11-20T00:29:01;40.72;;;17.05;;
31537;SDS011;18147;51.952;6.146;2022-11-20T00:31:27;40.55;;;16.38;;
31537;SDS011;18147;51.952;6.146;2022-11-20T00:33:53;39.03;;;17.17;;
31537;SDS011;18147;51.952;6.146;2022-11-20T00:36:20;37.25;;;17.45;;
31537;SDS011;18147;51.952;6.146;2022-11-20T00:38:47;40.15;;;18.55;;
31537;SDS011;18147;51.952;6.146;2022-11-20T00:41:16;46.30;;;19.65;;
31537;SDS011;18147;51.952;6.146;2022-11-20T00:43:41;41.17;;;18.77;;
31537;SDS011;18147;51.952;6.146;2022-11-20T00:46:08;50.70;;;19.55;;
31537;SDS011;18147;51.952;6.146;2022-11-20T00:48:37;44.42;;;18.88;;
31537;SDS011;18147;51.952;6.146;2022-11-20T00:51:02;37.85;;;17.77;;
31537;SDS011;18147;51.952;6.146;2022-11-20T00:53:28;42.00;;;17.98;;
31537;SDS011;18147;51.952;6.146;2022-11-20T00:55:54;41.70;;;17.98;;
31537;SDS011;18147;51.952;6.146;2022-11-20T00:58:35;35.00;;;16.85;;
31537;SDS011;18147;51.952;6.146;2022-11-20T01:01:06;37.50;;;17.95;;
31537;SDS011;18147;51.952;6.146;2022-11-20T01:03:40;41.45;;;18.02;;
31537;SDS011;18147;51.952;6.146;2022-11-20T01:06:09;44.25;;;18.95;;
31537;SDS011;18147;51.952;6.146;2022-11-20T01:08:46;45.45;;;19.02;;
31537;SDS011;18147;51.952;6.146;2022-11-20T01:11:13;31.75;;;15.93;;
31537;SDS011;18147;51.952;6.146;2022-11-20T01:13:41;40.65;;;18.67;;
31537;SDS011;18147;51.952;6.146;2022-11-20T01:16:08;41.70;;;18.35;;
31537;SDS011;18147;51.952;6.146;2022-11-20T01:18:36;43.05;;;18.35;;
31537;SDS011;18147;51.952;6.146;2022-11-20T01:21:07;33.25;;;15.85;;
31537;SDS011;18147;51.952;6.146;2022-11-20T01:23:36;41.15;;;17.90;;
31537;SDS011;18147;51.952;6.146;2022-11-20T01:26:05;40.20;;;18.13;;
31537;SDS011;18147;51.952;6.146;2022-11-20T01:28:33;46.60;;;19.42;;
31537;SDS011;18147;51.952;6.146;2022-11-20T01:31:00;37.85;;;18.00;;
31537;SDS011;18147;51.952;6.146;2022-11-20T01:33:26;36.97;;;17.77;;
31537;SDS011;18147;51.952;6.146;2022-11-20T01:35:52;38.60;;;17.25;;
31537;SDS011;18147;51.952;6.146;2022-11-20T01:38:18;42.03;;;17.92;;
31537;SDS011;18147;51.952;6.146;2022-11-20T01:40:45;41.08;;;18.13;;
31537;SDS011;18147;51.952;6.146;2022-11-20T01:43:19;40.40;;;18.40;;
31537;SDS011;18147;51.952;6.146;2022-11-20T01:51:45;37.13;;;16.60;;
31537;SDS011;18147;51.952;6.146;2022-11-20T01:54:24;41.60;;;17.10;;
31537;SDS011;18147;51.952;6.146;2022-11-20T01:56:55;39.40;;;18.60;;
31537;SDS011;18147;51.952;6.146;2022-11-20T01:59:22;35.80;;;16.10;;
31537;SDS011;18147;51.952;6.146;2022-11-20T02:01:51;35.42;;;16.25;;
31537;SDS011;18147;51.952;6.146;2022-11-20T02:04:17;35.53;;;16.27;;
31537;SDS011;18147;51.952;6.146;2022-11-20T02:06:47;37.15;;;17.17;;
31537;SDS011;18147;51.952;6.146;2022-11-20T02:09:15;34.80;;;16.35;;
31537;SDS011;18147;51.952;6.146;2022-11-20T02:11:41;42.80;;;17.77;;
31537;SDS011;18147;51.952;6.146;2022-11-20T02:14:06;39.70;;;16.80;;
31537;SDS011;18147;51.952;6.146;2022-11-20T02:16:51;34.45;;;15.82;;
31537;SDS011;18147;51.952;6.146;2022-11-20T02:19:26;37.83;;;15.95;;
31537;SDS011;18147;51.952;6.146;2022-11-20T02:24:24;34.20;;;15.65;;
31537;SDS011;18147;51.952;6.146;2022-11-20T02:26:51;41.92;;;16.33;;
31537;SDS011;18147;51.952;6.146;2022-11-20T02:29:23;38.13;;;16.15;;
31537;SDS011;18147;51.952;6.146;2022-11-20T02:31:53;35.50;;;16.25;;
31537;SDS011;18147;51.952;6.146;2022-11-20T02:34:20;37.95;;;16.65;;
31537;SDS011;18147;51.952;6.146;2022-11-20T02:36:45;35.67;;;15.88;;
31537;SDS011;18147;51.952;6.146;2022-11-20T02:39:13;29.67;;;15.43;;
31537;SDS011;18147;51.952;6.146;2022-11-20T02:41:42;36.72;;;15.90;;
31537;SDS011;18147;51.952;6.146;2022-11-20T02:44:10;33.35;;;16.95;;
31537;SDS011;18147;51.952;6.146;2022-11-20T02:46:35;38.33;;;16.88;;
31537;SDS011;18147;51.952;6.146;2022-11-20T02:49:02;38.40;;;17.27;;
31537;SDS011;18147;51.952;6.146;2022-11-20T02:51:29;36.95;;;16.30;;
31537;SDS011;18147;51.952;6.146;2022-11-20T02:53:55;38.75;;;16.58;;
31537;SDS011;18147;51.952;6.146;2022-11-20T02:56:20;35.20;;;15.55;;
31537;SDS011;18147;51.952;6.146;2022-11-20T02:58:46;37.15;;;16.88;;
31537;SDS011;18147;51.952;6.146;2022-11-20T03:01:11;46.70;;;18.67;;
31537;SDS011;18147;51.952;6.146;2022-11-20T03:03:37;34.75;;;15.80;;
31537;SDS011;18147;51.952;6.146;2022-11-20T03:06:02;40.92;;;15.98;;
31537;SDS011;18147;51.952;6.146;2022-11-20T03:08:28;40.25;;;17.10;;
31537;SDS011;18147;51.952;6.146;2022-11-20T03:10:54;37.20;;;16.67;;
31537;SDS011;18147;51.952;6.146;2022-11-20T03:13:19;33.13;;;14.32;;
31537;SDS011;18147;51.952;6.146;2022-11-20T03:15:45;32.05;;;15.30;;
31537;SDS011;18147;51.952;6.146;2022-11-20T03:18:10;37.15;;;16.20;;
31537;SDS011;18147;51.952;6.146;2022-11-20T03:20:36;35.30;;;15.75;;
31537;SDS011;18147;51.952;6.146;2022-11-20T03:23:01;34.45;;;16.30;;
31537;SDS011;18147;51.952;6.146;2022-11-20T03:25:27;37.13;;;15.85;;
31537;SDS011;18147;51.952;6.146;2022-11-20T03:27:53;40.67;;;17.02;;
31537;SDS011;18147;51.952;6.146;2022-11-20T03:30:19;33.92;;;16.17;;
31537;SDS011;18147;51.952;6.146;2022-11-20T03:32:44;34.75;;;15.63;;
31537;SDS011;18147;51.952;6.146;2022-11-20T03:35:10;33.15;;;16.23;;
31537;SDS011;18147;51.952;6.146;2022-11-20T03:37:35;36.78;;;15.82;;
31537;SDS011;18147;51.952;6.146;2022-11-20T03:40:00;39.15;;;16.88;;
31537;SDS011;18147;51.952;6.146;2022-11-20T03:42:26;40.03;;;16.27;;
31537;SDS011;18147;51.952;6.146;2022-11-20T03:45:10;38.35;;;14.93;;
31537;SDS011;18147;51.952;6.146;2022-11-20T03:47:35;35.92;;;15.40;;
31537;SDS011;18147;51.952;6.146;2022-11-20T03:50:01;41.20;;;17.35;;
31537;SDS011;18147;51.952;6.146;2022-11-20T03:52:26;36.88;;;16.42;;
31537;SDS011;18147;51.952;6.146;2022-11-20T03:54:52;40.97;;;16.27;;
31537;SDS011;18147;51.952;6.146;2022-11-20T03:57:17;34.53;;;15.38;;
31537;SDS011;18147;51.952;6.146;2022-11-20T03:59:42;46.85;;;16.52;;
31537;SDS011;18147;51.952;6.146;2022-11-20T04:02:08;33.58;;;15.98;;
31537;SDS011;18147;51.952;6.146;2022-11-20T04:04:33;35.85;;;16.60;;
31537;SDS011;18147;51.952;6.146;2022-11-20T04:06:58;33.03;;;15.07;;
31537;SDS011;18147;51.952;6.146;2022-11-20T04:09:24;38.30;;;15.60;;
31537;SDS011;18147;51.952;6.146;2022-11-20T04:11:49;37.83;;;15.82;;
31537;SDS011;18147;51.952;6.146;2022-11-20T04:14:15;31.85;;;14.50;;
31537;SDS011;18147;51.952;6.146;2022-11-20T04:16:41;38.00;;;16.08;;
31537;SDS011;18147;51.952;6.146;2022-11-20T04:19:12;38.92;;;16.85;;
31537;SDS011;18147;51.952;6.146;2022-11-20T04:21:39;35.97;;;16.92;;
31537;SDS011;18147;51.952;6.146;2022-11-20T04:24:05;33.67;;;14.93;;
31537;SDS011;18147;51.952;6.146;2022-11-20T04:26:30;31.27;;;14.32;;
31537;SDS011;18147;51.952;6.146;2022-11-20T04:28:56;33.13;;;14.93;;
31537;SDS011;18147;51.952;6.146;2022-11-20T04:31:23;32.45;;;15.63;;
31537;SDS011;18147;51.952;6.146;2022-11-20T04:33:51;33.50;;;14.75;;
31537;SDS011;18147;51.952;6.146;2022-11-20T04:36:17;37.63;;;16.02;;
31537;SDS011;18147;51.952;6.146;2022-11-20T04:38:50;36.95;;;14.98;;
31537;SDS011;18147;51.952;6.146;2022-11-20T04:41:22;35.25;;;15.98;;
31537;SDS011;18147;51.952;6.146;2022-11-20T04:43:55;36.05;;;16.67;;
31537;SDS011;18147;51.952;6.146;2022-11-20T04:46:24;32.80;;;14.75;;
31537;SDS011;18147;51.952;6.146;2022-11-20T04:48:51;33.10;;;14.95;;
31537;SDS011;18147;51.952;6.146;2022-11-20T04:51:17;28.23;;;13.40;;
31537;SDS011;18147;51.952;6.146;2022-11-20T04:53:42;35.85;;;15.90;;
31537;SDS011;18147;51.952;6.146;2022-11-20T04:56:09;40.53;;;16.73;;
31537;SDS011;18147;51.952;6.146;2022-11-20T04:58:36;35.10;;;15.20;;
31537;SDS011;18147;51.952;6.146;2022-11-20T05:03:33;37.30;;;16.00;;
31537;SDS011;18147;51.952;6.146;2022-11-20T05:06:05;37.92;;;15.60;;
31537;SDS011;18147;51.952;6.146;2022-11-20T05:08:31;43.42;;;16.23;;
31537;SDS011;18147;51.952;6.146;2022-11-20T05:11:07;40.88;;;15.90;;
31537;SDS011;18147;51.952;6.146;2022-11-20T05:13:36;36.90;;;15.68;;
31537;SDS011;18147;51.952;6.146;2022-11-20T05:16:06;40.92;;;16.90;;
31537;SDS011;18147;51.952;6.146;2022-11-20T05:18:32;36.47;;;16.23;;
31537;SDS011;18147;51.952;6.146;2022-11-20T05:20:58;37.03;;;16.40;;
31537;SDS011;18147;51.952;6.146;2022-11-20T05:23:25;35.72;;;16.05;;
31537;SDS011;18147;51.952;6.146;2022-11-20T05:25:52;30.38;;;12.93;;
31537;SDS011;18147;51.952;6.146;2022-11-20T05:28:18;33.22;;;14.60;;
31537;SDS011;18147;51.952;6.146;2022-11-20T05:30:44;33.10;;;15.93;;
31537;SDS011;18147;51.952;6.146;2022-11-20T05:33:10;37.88;;;16.35;;
31537;SDS011;18147;51.952;6.146;2022-11-20T05:35:35;37.35;;;16.02;;
31537;SDS011;18147;51.952;6.146;2022-11-20T05:38:00;39.72;;;15.93;;
31537;SDS011;18147;51.952;6.146;2022-11-20T05:40:26;41.00;;;17.55;;
31537;SDS011;18147;51.952;6.146;2022-11-20T05:42:51;37.63;;;16.08;;
31537;SDS011;18147;51.952;6.146;2022-11-20T05:45:16;35.28;;;16.55;;
31537;SDS011;18147;51.952;6.146;2022-11-20T05:47:42;39.85;;;16.98;;
31537;SDS011;18147;51.952;6.146;2022-11-20T05:50:07;35.22;;;15.88;;
31537;SDS011;18147;51.952;6.146;2022-11-20T05:52:33;40.30;;;17.35;;
31537;SDS011;18147;51.952;6.146;2022-11-20T05:54:58;52.42;;;17.92;;
31537;SDS011;18147;51.952;6.146;2022-11-20T05:57:23;33.85;;;16.90;;
31537;SDS011;18147;51.952;6.146;2022-11-20T05:59:49;37.13;;;16.10;;
31537;SDS011;18147;51.952;6.146;2022-11-20T06:02:14;44.08;;;16.92;;
31537;SDS011;18147;51.952;6.146;2022-11-20T06:04:40;41.38;;;16.75;;
31537;SDS011;18147;51.952;6.146;2022-11-20T06:07:05;35.88;;;15.50;;
31537;SDS011;18147;51.952;6.146;2022-11-20T06:09:31;37.60;;;16.75;;
31537;SDS011;18147;51.952;6.146;2022-11-20T06:11:57;38.05;;;16.80;;
31537;SDS011;18147;51.952;6.146;2022-11-20T06:14:22;39.85;;;17.25;;
31537;SDS011;18147;51.952;6.146;2022-11-20T06:16:48;44.70;;;18.83;;
31537;SDS011;18147;51.952;6.146;2022-11-20T06:19:13;41.92;;;17.13;;
31537;SDS011;18147;51.952;6.146;2022-11-20T06:21:39;43.38;;;15.98;;
31537;SDS011;18147;51.952;6.146;2022-11-20T06:24:05;39.83;;;16.58;;
31537;SDS011;18147;51.952;6.146;2022-11-20T06:26:31;38.78;;;16.45;;
31537;SDS011;18147;51.952;6.146;2022-11-20T06:28:56;42.00;;;17.02;;
31537;SDS011;18147;51.952;6.146;2022-11-20T06:31:22;48.33;;;20.50;;
31537;SDS011;18147;51.952;6.146;2022-11-20T06:33:52;42.85;;;18.98;;
31537;SDS011;18147;51.952;6.146;2022-11-20T06:36:19;49.83;;;19.10;;
31537;SDS011;18147;51.952;6.146;2022-11-20T06:38:47;47.80;;;19.73;;
31537;SDS011;18147;51.952;6.146;2022-11-20T06:41:14;37.85;;;16.00;;
31537;SDS011;18147;51.952;6.146;2022-11-20T06:43:42;39.00;;;16.33;;
31537;SDS011;18147;51.952;6.146;2022-11-20T06:46:09;37.53;;;16.25;;
31537;SDS011;18147;51.952;6.146;2022-11-20T06:48:35;48.75;;;16.67;;
31537;SDS011;18147;51.952;6.146;2022-11-20T06:51:02;42.30;;;17.33;;
31537;SDS011;18147;51.952;6.146;2022-11-20T06:53:29;43.85;;;17.63;;
31537;SDS011;18147;51.952;6.146;2022-11-20T06:55:55;43.08;;;17.70;;
31537;SDS011;18147;51.952;6.146;2022-11-20T06:58:22;48.42;;;20.83;;
31537;SDS011;18147;51.952;6.146;2022-11-20T07:00:48;49.97;;;19.25;;
31537;SDS011;18147;51.952;6.146;2022-11-20T07:03:14;44.15;;;18.58;;
31537;SDS011;18147;51.952;6.146;2022-11-20T07:05:39;44.92;;;19.17;;
31537;SDS011;18147;51.952;6.146;2022-11-20T07:08:05;40.90;;;18.52;;
31537;SDS011;18147;51.952;6.146;2022-11-20T07:10:31;40.08;;;18.23;;
31537;SDS011;18147;51.952;6.146;2022-11-20T07:12:57;48.25;;;18.52;;
31537;SDS011;18147;51.952;6.146;2022-11-20T07:15:23;44.13;;;16.45;;
31537;SDS011;18147;51.952;6.146;2022-11-20T07:17:49;42.67;;;16.67;;
31537;SDS011;18147;51.952;6.146;2022-11-20T07:20:15;41.53;;;17.45;;
31537;SDS011;18147;51.952;6.146;2022-11-20T07:22:41;42.20;;;18.40;;
31537;SDS011;18147;51.952;6.146;2022-11-20T07:25:07;42.22;;;17.30;;
31537;SDS011;18147;51.952;6.146;2022-11-20T07:27:33;39.40;;;17.38;;
31537;SDS011;18147;51.952;6.146;2022-11-20T07:29:59;43.67;;;18.45;;
31537;SDS011;18147;51.952;6.146;2022-11-20T07:32:24;37.55;;;16.92;;
31537;SDS011;18147;51.952;6.146;2022-11-20T07:34:50;43.50;;;17.88;;
31537;SDS011;18147;51.952;6.146;2022-11-20T07:37:15;42.20;;;17.77;;
31537;SDS011;18147;51.952;6.146;2022-11-20T07:39:41;41.42;;;18.55;;
31537;SDS011;18147;51.952;6.146;2022-11-20T07:42:07;41.75;;;19.30;;
31537;SDS011;18147;51.952;6.146;2022-11-20T07:44:36;39.50;;;18.65;;
31537;SDS011;18147;51.952;6.146;2022-11-20T07:47:01;46.20;;;21.25;;
31537;SDS011;18147;51.952;6.146;2022-11-20T07:49:27;42.33;;;19.42;;
31537;SDS011;18147;51.952;6.146;2022-11-20T07:51:52;45.08;;;18.80;;
31537;SDS011;18147;51.952;6.146;2022-11-20T07:54:19;33.88;;;17.13;;
31537;SDS011;18147;51.952;6.146;2022-11-20T07:56:45;40.40;;;18.42;;
31537;SDS011;18147;51.952;6.146;2022-11-20T07:59:11;43.05;;;18.67;;
31537;SDS011;18147;51.952;6.146;2022-11-20T08:01:40;39.85;;;18.13;;
31537;SDS011;18147;51.952;6.146;2022-11-20T08:04:06;39.05;;;17.75;;
31537;SDS011;18147;51.952;6.146;2022-11-20T08:06:32;42.55;;;18.05;;
31537;SDS011;18147;51.952;6.146;2022-11-20T08:08:57;40.65;;;18.27;;
31537;SDS011;18147;51.952;6.146;2022-11-20T08:11:23;40.13;;;17.20;;
31537;SDS011;18147;51.952;6.146;2022-11-20T08:14:10;38.45;;;17.65;;
31537;SDS011;18147;51.952;6.146;2022-11-20T08:16:45;37.72;;;18.27;;
31537;SDS011;18147;51.952;6.146;2022-11-20T08:19:12;40.15;;;17.25;;
31537;SDS011;18147;51.952;6.146;2022-11-20T08:21:39;42.72;;;20.20;;
31537;SDS011;18147;51.952;6.146;2022-11-20T08:24:05;42.35;;;17.95;;
31537;SDS011;18147;51.952;6.146;2022-11-20T08:26:31;41.90;;;19.70;;
31537;SDS011;18147;51.952;6.146;2022-11-20T08:28:57;40.60;;;18.98;;
31537;SDS011;18147;51.952;6.146;2022-11-20T08:31:26;40.63;;;18.35;;
31537;SDS011;18147;51.952;6.146;2022-11-20T08:33:52;48.15;;;20.10;;
31537;SDS011;18147;51.952;6.146;2022-11-20T08:36:18;45.50;;;20.65;;
31537;SDS011;18147;51.952;6.146;2022-11-20T08:38:49;40.28;;;20.58;;
31537;SDS011;18147;51.952;6.146;2022-11-20T08:41:15;48.78;;;21.13;;
31537;SDS011;18147;51.952;6.146;2022-11-20T08:43:54;40.63;;;19.40;;
31537;SDS011;18147;51.952;6.146;2022-11-20T08:46:32;41.90;;;19.15;;
31537;SDS011;18147;51.952;6.146;2022-11-20T08:49:03;48.08;;;21.70;;
31537;SDS011;18147;51.952;6.146;2022-11-20T08:51:29;48.22;;;20.25;;
31537;SDS011;18147;51.952;6.146;2022-11-20T08:53:55;43.22;;;21.90;;
31537;SDS011;18147;51.952;6.146;2022-11-20T08:56:20;43.63;;;20.77;;
31537;SDS011;18147;51.952;6.146;2022-11-20T08:58:46;40.92;;;20.33;;
31537;SDS011;18147;51.952;6.146;2022-11-20T09:01:11;46.42;;;21.92;;
31537;SDS011;18147;51.952;6.146;2022-11-20T09:03:37;50.47;;;22.30;;
31537;SDS011;18147;51.952;6.146;2022-11-20T09:06:03;50.00;;;23.42;;
31537;SDS011;18147;51.952;6.146;2022-11-20T09:08:31;46.13;;;22.85;;
31537;SDS011;18147;51.952;6.146;2022-11-20T09:10:57;53.13;;;23.00;;
31537;SDS011;18147;51.952;6.146;2022-11-20T09:13:24;58.33;;;25.42;;
31537;SDS011;18147;51.952;6.146;2022-11-20T09:15:54;53.95;;;25.88;;
31537;SDS011;18147;51.952;6.146;2022-11-20T09:18:21;55.13;;;25.33;;
31537;SDS011;18147;51.952;6.146;2022-11-20T09:20:47;45.90;;;23.13;;
31537;SDS011;18147;51.952;6.146;2022-11-20T09:23:12;54.33;;;22.45;;
31537;SDS011;18147;51.952;6.146;2022-11-20T09:25:38;52.75;;;23.45;;
31537;SDS011;18147;51.952;6.146;2022-11-20T09:28:04;58.75;;;24.38;;
31537;SDS011;18147;51.952;6.146;2022-11-20T09:30:30;56.85;;;25.48;;
31537;SDS011;18147;51.952;6.146;2022-11-20T09:32:56;51.28;;;23.92;;
31537;SDS011;18147;51.952;6.146;2022-11-20T09:35:21;54.28;;;24.92;;
31537;SDS011;18147;51.952;6.146;2022-11-20T09:37:47;53.38;;;25.13;;
31537;SDS011;18147;51.952;6.146;2022-11-20T09:40:31;52.22;;;24.05;;
31537;SDS011;18147;51.952;6.146;2022-11-20T09:42:57;51.03;;;24.65;;
31537;SDS011;18147;51.952;6.146;2022-11-20T09:45:56;54.88;;;26.27;;
31537;SDS011;18147;51.952;6.146;2022-11-20T09:48:26;62.05;;;25.95;;
31537;SDS011;18147;51.952;6.146;2022-11-20T09:51:25;52.33;;;26.88;;
31537;SDS011;18147;51.952;6.146;2022-11-20T09:54:05;49.15;;;25.65;;
31537;SDS011;18147;51.952;6.146;2022-11-20T09:56:53;54.30;;;26.63;;
31537;SDS011;18147;51.952;6.146;2022-11-20T10:01:56;50.17;;;25.05;;
31537;SDS011;18147;51.952;6.146;2022-11-20T10:04:24;55.35;;;24.27;;
31537;SDS011;18147;51.952;6.146;2022-11-20T10:07:01;46.72;;;24.25;;
31537;SDS011;18147;51.952;6.146;2022-11-20T10:09:34;47.22;;;25.48;;
31537;SDS011;18147;51.952;6.146;2022-11-20T10:17:47;56.30;;;27.08;;
31537;SDS011;18147;51.952;6.146;2022-11-20T10:26:16;59.60;;;28.00;;
31537;SDS011;18147;51.952;6.146;2022-11-20T10:31:40;59.30;;;28.00;;
31537;SDS011;18147;51.952;6.146;2022-11-20T10:34:20;54.70;;;26.65;;
31537;SDS011;18147;51.952;6.146;2022-11-20T10:36:52;49.10;;;25.48;;
31537;SDS011;18147;51.952;6.146;2022-11-20T10:39:39;54.97;;;27.00;;
31537;SDS011;18147;51.952;6.146;2022-11-20T10:42:31;52.15;;;27.23;;
31537;SDS011;18147;51.952;6.146;2022-11-20T10:45:09;54.97;;;27.90;;
31537;SDS011;18147;51.952;6.146;2022-11-20T10:47:44;57.38;;;27.02;;
31537;SDS011;18147;51.952;6.146;2022-11-20T10:50:11;54.25;;;27.73;;
31537;SDS011;18147;51.952;6.146;2022-11-20T10:55:22;63.20;;;29.33;;
31537;SDS011;18147;51.952;6.146;2022-11-20T10:58:14;54.60;;;27.25;;
31537;SDS011;18147;51.952;6.146;2022-11-20T11:00:47;56.63;;;27.17;;
31537;SDS011;18147;51.952;6.146;2022-11-20T11:03:28;54.78;;;26.50;;
31537;SDS011;18147;51.952;6.146;2022-11-20T11:08:34;56.88;;;26.50;;
31537;SDS011;18147;51.952;6.146;2022-11-20T11:11:07;52.67;;;26.35;;
31537;SDS011;18147;51.952;6.146;2022-11-20T11:16:24;56.67;;;24.38;;
31537;SDS011;18147;51.952;6.146;2022-11-20T11:18:51;57.83;;;24.83;;
31537;SDS011;18147;51.952;6.146;2022-11-20T11:21:23;50.45;;;25.05;;
31537;SDS011;18147;51.952;6.146;2022-11-20T11:26:23;50.70;;;24.27;;
31537;SDS011;18147;51.952;6.146;2022-11-20T11:29:02;65.90;;;26.75;;
31537;SDS011;18147;51.952;6.146;2022-11-20T11:31:32;43.42;;;20.13;;
31537;SDS011;18147;51.952;6.146;2022-11-20T11:34:13;50.13;;;23.60;;
31537;SDS011;18147;51.952;6.146;2022-11-20T11:36:40;43.08;;;21.15;;
31537;SDS011;18147;51.952;6.146;2022-11-20T11:39:25;49.13;;;22.77;;
31537;SDS011;18147;51.952;6.146;2022-11-20T11:41:54;54.97;;;27.05;;
31537;SDS011;18147;51.952;6.146;2022-11-20T11:44:24;53.03;;;25.98;;
31537;SDS011;18147;51.952;6.146;2022-11-20T11:47:25;58.13;;;27.35;;
31537;SDS011;18147;51.952;6.146;2022-11-20T11:52:42;122.20;;;57.47;;
31537;SDS011;18147;51.952;6.146;2022-11-20T11:57:59;57.55;;;23.83;;
31537;SDS011;18147;51.952;6.146;2022-11-20T12:00:32;50.58;;;23.90;;
31537;SDS011;18147;51.952;6.146;2022-11-20T12:03:04;52.08;;;23.60;;
31537;SDS011;18147;51.952;6.146;2022-11-20T12:05:42;48.33;;;22.88;;
31537;SDS011;18147;51.952;6.146;2022-11-20T12:13:52;44.72;;;22.55;;
31537;SDS011;18147;51.952;6.146;2022-11-20T12:16:23;43.03;;;22.70;;
31537;SDS011;18147;51.952;6.146;2022-11-20T12:18:50;55.92;;;22.02;;
31537;SDS011;18147;51.952;6.146;2022-11-20T12:21:20;50.28;;;24.15;;
31537;SDS011;18147;51.952;6.146;2022-11-20T12:24:05;50.70;;;22.98;;
31537;SDS011;18147;51.952;6.146;2022-11-20T12:26:48;53.25;;;23.33;;
31537;SDS011;18147;51.952;6.146;2022-11-20T12:35:35;57.03;;;24.40;;
31537;SDS011;18147;51.952;6.146;2022-11-20T12:41:23;55.10;;;25.45;;
31537;SDS011;18147;51.952;6.146;2022-11-20T12:47:31;59.65;;;28.40;;
31537;SDS011;18147;51.952;6.146;2022-11-20T12:53:13;73.53;;;29.75;;
31537;SDS011;18147;51.952;6.146;2022-11-20T12:58:21;71.28;;;28.35;;
31537;SDS011;18147;51.952;6.146;2022-11-20T13:01:16;66.03;;;29.73;;
31537;SDS011;18147;51.952;6.146;2022-11-20T13:06:42;62.85;;;28.55;;
31537;SDS011;18147;51.952;6.146;2022-11-20T13:11:44;68.05;;;28.98;;
31537;SDS011;18147;51.952;6.146;2022-11-20T13:17:40;63.13;;;29.48;;
31537;SDS011;18147;51.952;6.146;2022-11-20T13:20:12;74.50;;;31.63;;
31537;SDS011;18147;51.952;6.146;2022-11-20T13:22:51;55.28;;;27.40;;
31537;SDS011;18147;51.952;6.146;2022-11-20T13:25:32;66.35;;;30.45;;
31537;SDS011;18147;51.952;6.146;2022-11-20T13:28:00;61.97;;;29.05;;
31537;SDS011;18147;51.952;6.146;2022-11-20T13:30:36;69.45;;;30.33;;
31537;SDS011;18147;51.952;6.146;2022-11-20T13:33:23;67.75;;;28.77;;
31537;SDS011;18147;51.952;6.146;2022-11-20T13:35:58;65.85;;;29.77;;
31537;SDS011;18147;51.952;6.146;2022-11-20T13:38:27;65.88;;;29.85;;
31537;SDS011;18147;51.952;6.146;2022-11-20T13:40:55;66.60;;;29.90;;
31537;SDS011;18147;51.952;6.146;2022-11-20T13:43:40;60.25;;;27.70;;
31537;SDS011;18147;51.952;6.146;2022-11-20T13:46:07;69.05;;;29.67;;
31537;SDS011;18147;51.952;6.146;2022-11-20T13:48:40;71.68;;;32.03;;
31537;SDS011;18147;51.952;6.146;2022-11-20T13:51:26;59.90;;;28.77;;
31537;SDS011;18147;51.952;6.146;2022-11-20T13:56:43;64.97;;;29.50;;
31537;SDS011;18147;51.952;6.146;2022-11-20T14:01:57;61.05;;;28.45;;
31537;SDS011;18147;51.952;6.146;2022-11-20T14:04:29;64.82;;;28.23;;
31537;SDS011;18147;51.952;6.146;2022-11-20T14:06:58;63.33;;;29.77;;
31537;SDS011;18147;51.952;6.146;2022-11-20T14:09:28;75.45;;;34.20;;
31537;SDS011;18147;51.952;6.146;2022-11-20T14:11:56;63.47;;;29.83;;
31537;SDS011;18147;51.952;6.146;2022-11-20T14:14:25;74.35;;;32.90;;
31537;SDS011;18147;51.952;6.146;2022-11-20T14:16:53;74.85;;;33.83;;
31537;SDS011;18147;51.952;6.146;2022-11-20T14:19:41;65.40;;;30.67;;
31537;SDS011;18147;51.952;6.146;2022-11-20T14:22:22;69.45;;;33.58;;
31537;SDS011;18147;51.952;6.146;2022-11-20T14:24:59;69.40;;;33.60;;
31537;SDS011;18147;51.952;6.146;2022-11-20T14:27:28;65.70;;;32.17;;
31537;SDS011;18147;51.952;6.146;2022-11-20T14:29:54;72.72;;;33.30;;
31537;SDS011;18147;51.952;6.146;2022-11-20T14:32:20;71.72;;;33.03;;
31537;SDS011;18147;51.952;6.146;2022-11-20T14:34:50;74.80;;;32.70;;
31537;SDS011;18147;51.952;6.146;2022-11-20T14:37:26;68.80;;;31.85;;
31537;SDS011;18147;51.952;6.146;2022-11-20T14:39:58;82.53;;;32.13;;
31537;SDS011;18147;51.952;6.146;2022-11-20T14:42:27;87.60;;;35.22;;
31537;SDS011;18147;51.952;6.146;2022-11-20T14:44:59;71.60;;;31.48;;
31537;SDS011;18147;51.952;6.146;2022-11-20T14:47:26;71.45;;;29.17;;
31537;SDS011;18147;51.952;6.146;2022-11-20T14:49:54;67.80;;;32.67;;
31537;SDS011;18147;51.952;6.146;2022-11-20T14:52:23;71.35;;;30.58;;
31537;SDS011;18147;51.952;6.146;2022-11-20T14:54:51;70.47;;;34.67;;
31537;SDS011;18147;51.952;6.146;2022-11-20T14:57:34;76.25;;;34.20;;
31537;SDS011;18147;51.952;6.146;2022-11-20T15:00:05;86.18;;;33.70;;
31537;SDS011;18147;51.952;6.146;2022-11-20T15:02:46;75.15;;;33.88;;
31537;SDS011;18147;51.952;6.146;2022-11-20T15:05:13;69.20;;;30.20;;
31537;SDS011;18147;51.952;6.146;2022-11-20T15:07:41;80.82;;;34.58;;
31537;SDS011;18147;51.952;6.146;2022-11-20T15:12:49;80.60;;;33.67;;
31537;SDS011;18147;51.952;6.146;2022-11-20T15:15:25;79.20;;;34.50;;
31537;SDS011;18147;51.952;6.146;2022-11-20T15:18:01;75.05;;;30.67;;
31537;SDS011;18147;51.952;6.146;2022-11-20T15:20:28;82.72;;;35.42;;
31537;SDS011;18147;51.952;6.146;2022-11-20T15:22:56;80.32;;;32.95;;
31537;SDS011;18147;51.952;6.146;2022-11-20T15:25:22;68.65;;;30.98;;
31537;SDS011;18147;51.952;6.146;2022-11-20T15:27:50;65.28;;;25.50;;
31537;SDS011;18147;51.952;6.146;2022-11-20T15:30:20;76.57;;;30.60;;
31537;SDS011;18147;51.952;6.146;2022-11-20T15:32:46;77.10;;;30.98;;
31537;SDS011;18147;51.952;6.146;2022-11-20T15:35:12;66.20;;;27.17;;
31537;SDS011;18147;51.952;6.146;2022-11-20T15:37:39;81.38;;;31.25;;
31537;SDS011;18147;51.952;6.146;2022-11-20T15:40:05;75.53;;;32.35;;
31537;SDS011;18147;51.952;6.146;2022-11-20T15:42:31;85.93;;;33.38;;
31537;SDS011;18147;51.952;6.146;2022-11-20T15:44:57;77.18;;;31.00;;
31537;SDS011;18147;51.952;6.146;2022-11-20T15:47:27;89.90;;;34.65;;
31537;SDS011;18147;51.952;6.146;2022-11-20T15:49:55;81.85;;;33.65;;
31537;SDS011;18147;51.952;6.146;2022-11-20T15:52:20;72.75;;;30.90;;
31537;SDS011;18147;51.952;6.146;2022-11-20T15:54:46;78.05;;;34.47;;
31537;SDS011;18147;51.952;6.146;2022-11-20T15:57:12;81.72;;;35.80;;
31537;SDS011;18147;51.952;6.146;2022-11-20T15:59:38;92.05;;;34.90;;